Time;durP1;ratioP1;P1;durP2;ratioP2;P2;SDS_P1;SDS_P2;PMS_P1;PMS_P2;Temp;Humidity;BMP_temperature;BMP_pressure;BME280_temperature;BME280_humidity;BME280_pressure;Samples;Min_cycle;Max_cycle;Signal;HPM_P1;HPM_P2
2022/01/07 00:00:20;;;;;;;5.05;2.97;;;;;;;;;;8403067;28;20040;-76
2022/01/07 00:04:41;;;;;;;9.55;3.10;;;;;;;;;;8402969;28;20052;-75
2022/01/07 00:08:44;;;;;;;7.97;3.03;;;;;;;;;;8402134;28;20044;-75
2022/01/07 00:12:47;;;;;;;7.18;2.88;;;;;;;;;;8402924;28;20076;-76
2022/01/07 00:16:51;;;;;;;8.32;3.30;;;;;;;;;;8402274;28;20457;-77
2022/01/07 00:20:55;;;;;;;7.10;2.92;;;;;;;;;;8401845;28;20044;-76
2022/01/07 00:24:57;;;;;;;7.80;3.08;;;;;;;;;;8401970;28;20400;-74
2022/01/07 00:29:00;;;;;;;8.60;3.42;;;;;;;;;;8401467;28;20059;-77
2022/01/07 00:33:04;;;;;;;6.68;2.70;;;;;;;;;;8401814;28;20051;-75
2022/01/07 00:37:06;;;;;;;8.55;3.13;;;;;;;;;;8401238;28;20433;-73
2022/01/07 00:41:09;;;;;;;6.00;2.88;;;;;;;;;;8400696;28;20557;-78
2022/01/07 00:45:12;;;;;;;8.20;3.17;;;;;;;;;;8401354;28;20045;-75
2022/01/07 00:49:21;;;;;;;8.15;3.33;;;;;;;;;;8400834;28;20044;-74
2022/01/07 00:53:23;;;;;;;6.57;3.10;;;;;;;;;;8400708;28;20044;-75
2022/01/07 00:57:26;;;;;;;7.15;3.17;;;;;;;;;;8400319;28;20503;-76
2022/01/07 01:01:29;;;;;;;7.70;2.85;;;;;;;;;;8400461;28;20090;-76
2022/01/07 01:05:35;;;;;;;8.07;3.40;;;;;;;;;;8400258;28;20408;-78
2022/01/07 01:09:38;;;;;;;8.27;3.83;;;;;;;;;;8400693;28;20048;-77
2022/01/07 01:13:40;;;;;;;10.10;3.88;;;;;;;;;;8400048;28;20056;-75
2022/01/07 01:17:43;;;;;;;10.25;3.58;;;;;;;;;;8400403;28;20048;-75
2022/01/07 01:21:47;;;;;;;7.65;3.67;;;;;;;;;;8400246;28;20158;-76
2022/01/07 01:25:50;;;;;;;6.63;3.30;;;;;;;;;;8399521;28;20052;-75
2022/01/07 01:29:52;;;;;;;7.60;4.00;;;;;;;;;;8399498;28;20051;-74
2022/01/07 01:33:54;;;;;;;7.68;3.30;;;;;;;;;;8399867;28;20386;-76
2022/01/07 01:37:59;;;;;;;11.45;4.35;;;;;;;;;;8399247;28;20051;-75
2022/01/07 01:42:01;;;;;;;9.35;4.40;;;;;;;;;;8399645;28;20052;-75
2022/01/07 01:46:04;;;;;;;9.23;3.83;;;;;;;;;;8399509;28;20052;-76
2022/01/07 01:50:08;;;;;;;7.40;3.67;;;;;;;;;;8399321;28;20048;-75
2022/01/07 01:54:12;;;;;;;11.35;3.97;;;;;;;;;;8399287;28;20044;-76
2022/01/07 01:58:14;;;;;;;9.65;4.07;;;;;;;;;;8398714;28;20064;-75
2022/01/07 02:02:17;;;;;;;11.77;4.40;;;;;;;;;;8398961;28;20068;-76
2022/01/07 02:06:20;;;;;;;12.82;4.18;;;;;;;;;;8398746;28;20519;-75
2022/01/07 02:10:24;;;;;;;13.80;3.85;;;;;;;;;;8398680;28;20357;-75
2022/01/07 02:14:28;;;;;;;11.73;4.45;;;;;;;;;;8398563;28;20067;-75
2022/01/07 02:18:30;;;;;;;7.93;4.75;;;;;;;;;;8411255;28;20048;-76
2022/01/07 02:22:34;;;;;;;9.35;4.90;;;;;;;;;;8429363;28;20055;-75
2022/01/07 02:26:37;;;;;;;12.77;4.93;;;;;;;;;;8436115;28;20071;-76
2022/01/07 02:30:39;;;;;;;10.25;5.07;;;;;;;;;;8438126;28;20043;-76
2022/01/07 02:34:42;;;;;;;9.00;3.80;;;;;;;;;;8444029;28;20044;-76
2022/01/07 02:38:46;;;;;;;11.63;4.13;;;;;;;;;;8444767;28;20051;-77
2022/01/07 02:42:49;;;;;;;11.93;5.03;;;;;;;;;;8428491;28;20074;-76
2022/01/07 02:46:52;;;;;;;12.18;4.22;;;;;;;;;;8434375;28;20050;-74
2022/01/07 02:50:55;;;;;;;15.98;5.63;;;;;;;;;;8432811;28;20043;-75
2022/01/07 02:54:58;;;;;;;10.98;4.00;;;;;;;;;;8448005;28;20040;-74
2022/01/07 02:59:01;;;;;;;15.32;4.40;;;;;;;;;;8416871;28;20050;-78
2022/01/07 03:03:05;;;;;;;8.15;4.20;;;;;;;;;;8422830;28;20044;-76
2022/01/07 03:07:08;;;;;;;12.00;4.80;;;;;;;;;;8442720;28;20047;-77
2022/01/07 03:11:12;;;;;;;9.95;4.25;;;;;;;;;;8443258;28;20047;-76
2022/01/07 03:15:15;;;;;;;9.60;4.38;;;;;;;;;;8446633;28;20035;-76
2022/01/07 03:19:17;;;;;;;6.13;3.42;;;;;;;;;;8445393;28;20044;-75
2022/01/07 03:23:20;;;;;;;7.78;4.43;;;;;;;;;;8436799;28;20051;-78
2022/01/07 03:27:24;;;;;;;8.93;4.22;;;;;;;;;;8439271;28;20040;-75
2022/01/07 03:31:27;;;;;;;7.43;3.97;;;;;;;;;;8433152;28;20044;-74
2022/01/07 03:35:29;;;;;;;10.02;5.03;;;;;;;;;;8430410;28;20407;-76
2022/01/07 03:39:32;;;;;;;12.05;4.63;;;;;;;;;;8430404;28;20136;-73
2022/01/07 03:43:35;;;;;;;12.38;5.47;;;;;;;;;;8429778;28;20051;-76
2022/01/07 03:47:38;;;;;;;16.25;5.57;;;;;;;;;;8430363;28;20094;-74
2022/01/07 03:51:42;;;;;;;17.98;5.30;;;;;;;;;;8410950;28;20049;-76
2022/01/07 03:55:44;;;;;;;13.68;7.03;;;;;;;;;;8396008;28;20048;-76
2022/01/07 03:59:50;;;;;;;15.05;5.22;;;;;;;;;;8396150;28;20052;-76
2022/01/07 04:03:53;;;;;;;12.50;5.53;;;;;;;;;;8396125;28;20052;-76
2022/01/07 04:07:56;;;;;;;13.95;5.72;;;;;;;;;;8396025;28;20048;-75
2022/01/07 04:11:59;;;;;;;13.65;5.93;;;;;;;;;;8395939;28;20037;-74
2022/01/07 04:16:03;;;;;;;10.68;4.85;;;;;;;;;;8399646;28;20055;-77
2022/01/07 04:20:08;;;;;;;12.18;5.63;;;;;;;;;;8402152;28;20044;-74
2022/01/07 04:24:10;;;;;;;14.10;5.70;;;;;;;;;;8401529;28;20048;-77
2022/01/07 04:28:13;;;;;;;9.02;4.90;;;;;;;;;;8401477;28;20048;-75
2022/01/07 04:32:18;;;;;;;12.63;5.35;;;;;;;;;;8402311;28;20051;-74
2022/01/07 04:36:20;;;;;;;10.48;4.65;;;;;;;;;;8401368;28;20058;-75
2022/01/07 04:40:23;;;;;;;21.35;5.60;;;;;;;;;;8401568;28;20044;-74
2022/01/07 04:44:26;;;;;;;13.63;5.32;;;;;;;;;;8401377;28;20053;-73
2022/01/07 04:48:30;;;;;;;10.98;5.18;;;;;;;;;;8400871;28;20104;-76
2022/01/07 04:52:32;;;;;;;11.05;4.25;;;;;;;;;;8401292;28;20565;-74
2022/01/07 04:56:35;;;;;;;10.43;4.35;;;;;;;;;;8400738;28;20466;-74
2022/01/07 05:00:39;;;;;;;9.52;5.80;;;;;;;;;;8400439;28;20045;-75
2022/01/07 05:04:42;;;;;;;10.82;4.47;;;;;;;;;;8400263;28;20052;-75
2022/01/07 05:08:45;;;;;;;14.00;5.20;;;;;;;;;;8400801;28;20127;-75
2022/01/07 05:12:47;;;;;;;12.38;4.85;;;;;;;;;;8400662;28;20633;-75
2022/01/07 05:16:50;;;;;;;13.82;5.13;;;;;;;;;;8400029;28;20053;-76
2022/01/07 05:20:54;;;;;;;11.20;4.28;;;;;;;;;;8400364;28;20048;-73
2022/01/07 05:24:57;;;;;;;15.13;6.63;;;;;;;;;;8399352;28;20048;-74
2022/01/07 05:28:59;;;;;;;13.43;4.78;;;;;;;;;;8399731;28;20071;-75
2022/01/07 05:33:02;;;;;;;12.73;5.68;;;;;;;;;;8399618;28;20063;-74
2022/01/07 05:37:07;;;;;;;12.30;5.55;;;;;;;;;;8399905;28;20454;-74
2022/01/07 05:41:09;;;;;;;16.88;5.45;;;;;;;;;;8399300;28;20044;-73
2022/01/07 05:45:12;;;;;;;9.73;4.45;;;;;;;;;;8399581;28;20049;-73
2022/01/07 05:49:15;;;;;;;18.40;5.75;;;;;;;;;;8399399;28;20472;-75
2022/01/07 05:53:19;;;;;;;20.08;4.45;;;;;;;;;;8399285;28;20121;-76
2022/01/07 05:57:22;;;;;;;18.83;4.32;;;;;;;;;;8398684;28;20529;-76
2022/01/07 06:01:24;;;;;;;8.30;4.43;;;;;;;;;;8410385;28;20052;-72
2022/01/07 06:05:27;;;;;;;8.43;4.22;;;;;;;;;;8398897;28;20048;-74
2022/01/07 06:09:31;;;;;;;16.35;6.85;;;;;;;;;;8398695;28;20048;-74
2022/01/07 06:13:34;;;;;;;14.65;6.60;;;;;;;;;;8398241;28;20514;-77
2022/01/07 06:17:36;;;;;;;10.77;4.90;;;;;;;;;;8398053;28;20136;-76
2022/01/07 06:21:39;;;;;;;9.52;5.50;;;;;;;;;;8398423;28;20404;-73
2022/01/07 06:25:44;;;;;;;18.10;7.20;;;;;;;;;;8397741;28;20079;-75
2022/01/07 06:29:47;;;;;;;12.27;6.10;;;;;;;;;;8398237;28;20550;-75
2022/01/07 06:33:49;;;;;;;17.20;6.18;;;;;;;;;;8397701;28;20055;-73
2022/01/07 06:37:52;;;;;;;11.93;5.50;;;;;;;;;;8396942;28;20094;-76
2022/01/07 06:41:57;;;;;;;19.08;5.72;;;;;;;;;;8397932;28;20048;-74
2022/01/07 06:46:00;;;;;;;10.23;4.85;;;;;;;;;;8397284;28;20056;-76
2022/01/07 06:50:02;;;;;;;14.80;5.72;;;;;;;;;;8397568;28;20119;-75
2022/01/07 06:54:05;;;;;;;13.35;5.85;;;;;;;;;;8397372;28;20045;-75
2022/01/07 06:58:09;;;;;;;13.68;6.20;;;;;;;;;;8397179;28;20057;-74
2022/01/07 07:02:13;;;;;;;14.35;6.50;;;;;;;;;;8397484;28;20545;-75
2022/01/07 07:06:16;;;;;;;13.02;5.72;;;;;;;;;;8397347;28;20554;-75
2022/01/07 07:10:19;;;;;;;19.77;6.13;;;;;;;;;;8404984;28;20093;-76
2022/01/07 07:14:23;;;;;;;14.77;7.03;;;;;;;;;;8400780;28;20598;-73
2022/01/07 07:18:26;;;;;;;15.70;8.70;;;;;;;;;;8396800;28;20041;-76
2022/01/07 07:22:28;;;;;;;18.33;7.68;;;;;;;;;;8396834;28;20197;-76
2022/01/07 07:26:31;;;;;;;23.20;8.93;;;;;;;;;;8397167;28;20476;-75
2022/01/07 07:30:38;;;;;;;20.50;7.45;;;;;;;;;;8402584;28;20068;-75
2022/01/07 07:39:16;;;;;;;23.42;8.40;;;;;;;;;;8398063;28;20052;-74
2022/01/07 07:43:18;;;;;;;22.52;8.82;;;;;;;;;;8409179;28;20120;-74
2022/01/07 07:47:22;;;;;;;19.13;8.05;;;;;;;;;;8393810;28;20476;-73
2022/01/07 07:51:25;;;;;;;24.42;8.55;;;;;;;;;;8401969;28;20040;-76
2022/01/07 07:55:28;;;;;;;14.55;7.10;;;;;;;;;;8402456;28;20061;-74
2022/01/07 07:59:30;;;;;;;16.70;7.35;;;;;;;;;;8401643;28;20052;-75
2022/01/07 08:03:34;;;;;;;17.67;5.95;;;;;;;;;;8402622;28;20094;-76
2022/01/07 08:07:37;;;;;;;18.25;7.65;;;;;;;;;;8401806;28;20044;-75
2022/01/07 08:11:50;;;;;;;15.23;6.20;;;;;;;;;;8402266;28;20140;-75
2022/01/07 08:16:02;;;;;;;16.15;7.05;;;;;;;;;;8410614;28;20498;-77
2022/01/07 08:20:07;;;;;;;;;;;;;;;;;;8398672;28;20131;-76
2022/01/07 08:24:12;;;;;;;21.35;6.78;;;;;;;;;;8429373;28;19920;-75
2022/01/07 08:28:16;;;;;;;18.55;5.70;;;;;;;;;;8412941;28;20048;-76
2022/01/07 08:36:43;;;;;;;17.60;7.00;;;;;;;;;;8401233;28;20048;-76
2022/01/07 08:40:46;;;;;;;18.27;5.93;;;;;;;;;;8428967;28;20139;-78
2022/01/07 08:44:51;;;;;;;21.05;7.75;;;;;;;;;;8435045;28;20395;-75
2022/01/07 08:48:55;;;;;;;19.30;7.75;;;;;;;;;;8434935;28;20050;-77
2022/01/07 08:53:01;;;;;;;129.25;35.38;;;;;;;;;;8434239;28;20093;-75
2022/01/07 08:57:04;;;;;;;121.55;40.22;;;;;;;;;;8412161;28;20135;-77
2022/01/07 09:01:08;;;;;;;135.52;38.75;;;;;;;;;;8409304;28;20492;-77
2022/01/07 09:05:11;;;;;;;20.70;9.57;;;;;;;;;;8385992;28;20464;-75
2022/01/07 09:09:15;;;;;;;19.13;9.18;;;;;;;;;;8429413;28;20040;-76
2022/01/07 09:13:19;;;;;;;24.88;10.77;;;;;;;;;;8436260;28;20059;-76
2022/01/07 09:17:22;;;;;;;26.83;10.48;;;;;;;;;;8433716;28;20048;-78
2022/01/07 09:21:25;;;;;;;35.88;14.20;;;;;;;;;;8433538;28;20500;-77
2022/01/07 09:25:29;;;;;;;22.88;11.77;;;;;;;;;;8431544;28;20051;-75
2022/01/07 09:29:39;;;;;;;22.13;6.88;;;;;;;;;;8409877;28;20487;-79
2022/01/07 09:33:50;;;;;;;26.60;8.75;;;;;;;;;;8402357;28;20050;-78
2022/01/07 09:37:57;;;;;;;29.90;14.17;;;;;;;;;;8418772;28;20124;-77
2022/01/07 09:42:09;;;;;;;33.13;11.23;;;;;;;;;;8420191;28;20044;-76
2022/01/07 09:46:17;;;;;;;31.88;10.30;;;;;;;;;;8413175;28;20477;-76
2022/01/07 09:50:21;;;;;;;48.22;17.65;;;;;;;;;;8416228;28;20064;-75
2022/01/07 09:54:31;;;;;;;26.58;12.23;;;;;;;;;;8418309;28;20052;-76
2022/01/07 09:58:43;;;;;;;23.35;9.18;;;;;;;;;;8411636;28;20047;-77
2022/01/07 10:03:04;;;;;;;39.70;15.10;;;;;;;;;;8426576;28;20149;-76
2022/01/07 10:07:20;;;;;;;21.50;7.88;;;;;;;;;;8421874;28;20044;-76
2022/01/07 10:11:26;;;;;;;19.60;10.27;;;;;;;;;;8417349;28;20048;-76
2022/01/07 10:15:35;;;;;;;26.85;8.95;;;;;;;;;;8427042;28;20126;-77
2022/01/07 10:19:42;;;;;;;18.73;8.93;;;;;;;;;;8417838;28;20041;-75
2022/01/07 10:23:46;;;;;;;24.35;10.55;;;;;;;;;;8413995;28;20074;-78
2022/01/07 10:27:49;;;;;;;22.63;9.02;;;;;;;;;;8415088;28;20086;-78
2022/01/07 10:31:57;;;;;;;25.67;9.05;;;;;;;;;;8408458;28;20048;-74
2022/01/07 10:36:16;;;;;;;31.30;13.52;;;;;;;;;;8400253;28;20913;-76
2022/01/07 10:40:27;;;;;;;34.28;14.27;;;;;;;;;;8419363;28;20047;-76
2022/01/07 10:44:32;;;;;;;30.30;14.90;;;;;;;;;;8407399;28;20527;-73
2022/01/07 10:48:42;;;;;;;22.45;7.90;;;;;;;;;;8397432;28;20071;-75
2022/01/07 10:52:45;;;;;;;20.65;7.43;;;;;;;;;;8396421;28;20044;-74
2022/01/07 10:56:48;;;;;;;33.70;13.85;;;;;;;;;;8395672;28;20057;-74
2022/01/07 11:00:52;;;;;;;23.52;8.63;;;;;;;;;;8395117;28;20078;-75
2022/01/07 11:04:56;;;;;;;15.05;6.28;;;;;;;;;;8396471;28;20048;-76
2022/01/07 11:09:00;;;;;;;47.17;22.00;;;;;;;;;;8397039;28;20094;-77
2022/01/07 11:13:03;;;;;;;70.22;26.98;;;;;;;;;;8396922;28;20056;-74
2022/01/07 11:17:10;;;;;;;66.65;30.70;;;;;;;;;;8404367;28;20059;-74
2022/01/07 11:21:18;;;;;;;36.90;16.02;;;;;;;;;;8416037;28;20041;-76
2022/01/07 11:25:41;;;;;;;26.15;10.50;;;;;;;;;;8402179;28;20106;-76
2022/01/07 11:29:55;;;;;;;21.70;7.97;;;;;;;;;;8403995;28;20506;-74
2022/01/07 11:34:26;;;;;;;28.33;12.57;;;;;;;;;;8403239;28;20109;-75
2022/01/07 11:38:41;;;;;;;28.02;13.50;;;;;;;;;;8403613;28;20044;-76
2022/01/07 11:42:47;;;;;;;25.50;11.02;;;;;;;;;;8403136;28;20098;-76
2022/01/07 11:46:50;;;;;;;12.23;5.95;;;;;;;;;;8403336;28;20080;-74
2022/01/07 11:51:11;;;;;;;31.17;8.45;;;;;;;;;;8403228;28;20044;-76
2022/01/07 11:55:27;;;;;;;33.20;13.98;;;;;;;;;;8417374;28;20056;-74
2022/01/07 11:59:30;;;;;;;21.95;8.82;;;;;;;;;;8445470;28;20043;-76
2022/01/07 12:03:40;;;;;;;17.50;7.65;;;;;;;;;;8403111;28;20044;-75
2022/01/07 12:07:49;;;;;;;16.65;6.20;;;;;;;;;;8411319;28;20044;-75
2022/01/07 12:11:59;;;;;;;18.95;6.80;;;;;;;;;;8456354;28;20050;-77
2022/01/07 12:16:03;;;;;;;21.75;8.43;;;;;;;;;;8469907;28;20043;-76
2022/01/07 12:20:40;;;;;;;17.55;7.95;;;;;;;;;;8468036;28;20048;-77
2022/01/07 12:24:44;;;;;;;17.88;7.15;;;;;;;;;;8458880;28;20545;-77
2022/01/07 12:28:49;;;;;;;18.50;6.57;;;;;;;;;;8468849;28;20075;-76
2022/01/07 12:32:55;;;;;;;22.83;10.73;;;;;;;;;;8468875;28;20043;-76
2022/01/07 12:36:59;;;;;;;18.33;7.43;;;;;;;;;;8467722;28;20040;-76
2022/01/07 12:41:01;;;;;;;23.60;9.95;;;;;;;;;;8469222;27;20043;-77
2022/01/07 12:45:07;;;;;;;46.65;15.80;;;;;;;;;;8434647;28;20048;-76
2022/01/07 12:49:11;;;;;;;29.10;9.20;;;;;;;;;;8434994;28;20449;-79
2022/01/07 12:53:13;;;;;;;34.60;11.55;;;;;;;;;;8433517;28;20101;-75
2022/01/07 12:57:28;;;;;;;23.63;7.97;;;;;;;;;;8434169;28;20541;-76
2022/01/07 13:01:33;;;;;;;19.33;6.95;;;;;;;;;;8434722;28;20054;-75
2022/01/07 13:05:37;;;;;;;31.92;12.82;;;;;;;;;;8427463;28;20044;-76
2022/01/07 13:09:40;;;;;;;60.45;15.75;;;;;;;;;;8418051;28;20101;-76
2022/01/07 13:13:44;;;;;;;29.85;9.43;;;;;;;;;;8431222;28;20136;-75
2022/01/07 13:17:49;;;;;;;36.15;12.80;;;;;;;;;;8411136;28;20048;-77
2022/01/07 13:22:02;;;;;;;12.80;6.20;;;;;;;;;;8423425;28;20036;-77
2022/01/07 13:26:12;;;;;;;55.05;16.38;;;;;;;;;;8422646;28;20044;-76
2022/01/07 13:35:41;;;;;;;34.58;10.63;;;;;;;;;;8423123;28;20109;-76
2022/01/07 13:39:55;;;;;;;112.85;39.25;;;;;;;;;;8409907;28;20055;-76
2022/01/07 13:44:07;;;;;;;31.63;12.77;;;;;;;;;;8399542;28;20067;-76
2022/01/07 13:48:19;;;;;;;19.90;9.02;;;;;;;;;;8398877;28;20044;-75
2022/01/07 13:52:59;;;;;;;39.42;17.17;;;;;;;;;;8398956;28;20542;-77
2022/01/07 13:57:25;;;;;;;31.92;13.93;;;;;;;;;;8397175;28;20087;-77
2022/01/07 14:01:30;;;;;;;31.27;11.63;;;;;;;;;;8398295;28;20044;-75
2022/01/07 14:05:37;;;;;;;17.60;7.15;;;;;;;;;;8398030;28;20052;-76
2022/01/07 14:10:19;;;;;;;24.17;8.77;;;;;;;;;;8396723;28;20068;-76
2022/01/07 14:14:42;;;;;;;19.25;6.82;;;;;;;;;;8396599;28;20492;-77
2022/01/07 14:19:04;;;;;;;18.48;5.75;;;;;;;;;;8396980;28;20086;-77
2022/01/07 14:23:19;;;;;;;21.08;6.63;;;;;;;;;;8408389;28;20059;-75
2022/01/07 14:27:49;;;;;;;14.45;5.50;;;;;;;;;;8397190;28;20121;-74
2022/01/07 14:32:13;;;;;;;35.03;12.35;;;;;;;;;;8397137;28;20128;-75
2022/01/07 14:36:32;;;;;;;65.57;21.83;;;;;;;;;;8399547;28;20040;-77
2022/01/07 14:40:42;;;;;;;51.33;17.45;;;;;;;;;;8403550;28;20048;-76
2022/01/07 14:44:48;;;;;;;60.20;21.10;;;;;;;;;;8396820;28;20473;-77
2022/01/07 14:49:16;;;;;;;50.45;17.60;;;;;;;;;;8396495;28;20055;-76
2022/01/07 14:53:30;;;;;;;43.05;15.50;;;;;;;;;;8396840;28;20048;-77
2022/01/07 14:57:38;;;;;;;14.23;5.10;;;;;;;;;;8398300;28;20131;-75
2022/01/07 15:01:55;;;;;;;15.43;5.35;;;;;;;;;;8405840;28;20055;-75
2022/01/07 15:06:22;;;;;;;48.95;16.30;;;;;;;;;;8407817;28;20055;-76
2022/01/07 15:10:42;;;;;;;16.08;6.05;;;;;;;;;;8413459;28;20068;-75
2022/01/07 15:15:04;;;;;;;17.85;5.57;;;;;;;;;;8408234;28;20040;-78
2022/01/07 15:19:09;;;;;;;25.15;7.68;;;;;;;;;;8423406;28;20045;-78
2022/01/07 15:23:13;;;;;;;30.20;10.52;;;;;;;;;;8396194;28;20476;-79
2022/01/07 15:27:34;;;;;;;14.68;6.40;;;;;;;;;;8396015;28;20109;-75
2022/01/07 15:31:48;;;;;;;18.15;6.68;;;;;;;;;;8396776;28;20082;-75
2022/01/07 15:36:00;;;;;;;28.75;9.57;;;;;;;;;;8396231;28;20040;-75
2022/01/07 15:41:03;;;;;;;26.65;8.20;;;;;;;;;;8399109;28;20040;-76
2022/01/07 15:45:08;;;;;;;19.88;8.15;;;;;;;;;;8400700;28;20067;-76
2022/01/07 15:49:12;;;;;;;38.65;14.20;;;;;;;;;;8398992;28;20437;-76
2022/01/07 15:53:17;;;;;;;34.22;14.02;;;;;;;;;;8409620;28;20072;-80
2022/01/07 15:57:23;;;;;;;30.30;11.60;;;;;;;;;;8400172;28;20055;-75
2022/01/07 16:01:26;;;;;;;27.50;11.48;;;;;;;;;;8424217;28;20039;-75
2022/01/07 16:05:33;;;;;;;111.05;51.47;;;;;;;;;;8404649;28;20056;-76
2022/01/07 16:09:39;;;;;;;25.65;13.55;;;;;;;;;;8407687;28;20491;-76
2022/01/07 16:13:46;;;;;;;20.48;8.63;;;;;;;;;;8407589;28;20040;-76
2022/01/07 16:18:00;;;;;;;84.07;37.78;;;;;;;;;;8425446;28;20048;-77
2022/01/07 16:22:10;;;;;;;25.70;13.18;;;;;;;;;;8403307;28;20472;-78
2022/01/07 16:26:24;;;;;;;58.05;22.95;;;;;;;;;;8400834;28;20480;-74
2022/01/07 16:30:45;;;;;;;38.03;16.10;;;;;;;;;;8399630;28;20450;-75
2022/01/07 16:35:22;;;;;;;62.53;27.13;;;;;;;;;;8412536;28;20070;-77
2022/01/07 16:39:39;;;;;;;35.53;13.52;;;;;;;;;;8400916;28;20041;-76
2022/01/07 16:49:27;;;;;;;65.28;26.02;;;;;;;;;;8408238;28;20392;-75
2022/01/07 16:53:39;;;;;;;35.72;15.85;;;;;;;;;;8408834;28;20049;-75
2022/01/07 16:57:48;;;;;;;38.90;16.35;;;;;;;;;;8414885;28;20096;-77
2022/01/07 17:01:54;;;;;;;146.50;53.97;;;;;;;;;;8432879;28;20055;-74
2022/01/07 17:05:58;;;;;;;49.45;21.35;;;;;;;;;;8433282;28;20055;-78
2022/01/07 17:10:02;;;;;;;39.65;18.48;;;;;;;;;;8433879;28;20056;-74
2022/01/07 17:14:06;;;;;;;54.67;27.98;;;;;;;;;;8433898;28;20048;-76
2022/01/07 17:18:14;;;;;;;55.50;20.48;;;;;;;;;;8433411;28;20483;-75
2022/01/07 17:22:17;;;;;;;60.53;22.25;;;;;;;;;;8433058;28;20044;-77
2022/01/07 17:26:21;;;;;;;46.65;17.27;;;;;;;;;;8433400;28;20093;-74
2022/01/07 17:30:25;;;;;;;53.25;19.70;;;;;;;;;;8433745;28;20040;-74
2022/01/07 17:34:31;;;;;;;43.10;16.08;;;;;;;;;;8433542;28;20044;-86
2022/01/07 17:38:35;;;;;;;172.18;56.22;;;;;;;;;;8433133;28;20048;-75
2022/01/07 17:42:38;;;;;;;47.15;20.98;;;;;;;;;;8432994;28;20043;-75
2022/01/07 17:46:43;;;;;;;93.88;44.53;;;;;;;;;;8432762;28;20036;-73
2022/01/07 17:50:50;;;;;;;62.03;25.52;;;;;;;;;;8432722;28;20130;-75
2022/01/07 17:54:57;;;;;;;88.88;42.60;;;;;;;;;;8432395;28;20044;-73
2022/01/07 17:59:01;;;;;;;37.60;15.35;;;;;;;;;;8432385;28;20472;-74
2022/01/07 18:03:05;;;;;;;47.45;16.38;;;;;;;;;;8433277;28;20040;-73
2022/01/07 18:07:12;;;;;;;45.70;16.67;;;;;;;;;;8432357;28;20044;-75
2022/01/07 18:11:16;;;;;;;100.95;29.85;;;;;;;;;;8421032;28;20037;-74
2022/01/07 18:15:21;;;;;;;37.90;14.25;;;;;;;;;;8411835;28;20048;-75
2022/01/07 18:19:27;;;;;;;39.13;14.55;;;;;;;;;;8412323;28;20183;-74
2022/01/07 18:23:40;;;;;;;34.42;13.73;;;;;;;;;;8413401;28;20044;-75
2022/01/07 18:27:49;;;;;;;40.13;15.90;;;;;;;;;;8396978;28;20055;-75
2022/01/07 18:31:53;;;;;;;178.63;52.40;;;;;;;;;;8396984;28;20093;-78
2022/01/07 18:35:58;;;;;;;196.50;64.10;;;;;;;;;;8413191;28;20048;-76
2022/01/07 18:40:03;;;;;;;106.65;35.40;;;;;;;;;;8412673;28;20044;-75
2022/01/07 18:44:09;;;;;;;156.32;52.63;;;;;;;;;;8406008;28;20056;-75
2022/01/07 18:48:14;;;;;;;42.45;19.05;;;;;;;;;;8397067;28;20060;-76
2022/01/07 18:52:17;;;;;;;50.65;27.33;;;;;;;;;;8397224;28;20052;-75
2022/01/07 18:56:22;;;;;;;52.00;22.73;;;;;;;;;;8396438;28;20068;-74
2022/01/07 19:00:25;;;;;;;66.32;26.33;;;;;;;;;;8397040;28;20495;-81
2022/01/07 19:04:30;;;;;;;65.45;29.83;;;;;;;;;;8405329;28;20040;-76
2022/01/07 19:08:40;;;;;;;76.13;29.17;;;;;;;;;;8413835;28;20048;-75
2022/01/07 19:12:46;;;;;;;46.20;18.27;;;;;;;;;;8409990;28;20443;-75
2022/01/07 19:17:11;;;;;;;36.72;12.70;;;;;;;;;;8397367;28;20048;-77
2022/01/07 19:21:27;;;;;;;31.95;13.40;;;;;;;;;;8406209;28;20055;-77
2022/01/07 19:25:45;;;;;;;37.45;15.23;;;;;;;;;;8429678;28;20392;-76
2022/01/07 19:30:07;;;;;;;34.25;13.35;;;;;;;;;;8407532;28;20045;-76
2022/01/07 19:34:33;;;;;;;35.63;12.43;;;;;;;;;;8396379;28;20396;-75
2022/01/07 19:38:49;;;;;;;36.97;13.82;;;;;;;;;;8395833;28;20045;-76
2022/01/07 19:43:06;;;;;;;242.18;69.82;;;;;;;;;;8396834;28;20051;-75
2022/01/07 19:47:32;;;;;;;270.65;89.70;;;;;;;;;;8405998;28;20041;-76
2022/01/07 19:51:51;;;;;;;144.07;50.03;;;;;;;;;;8401401;28;20051;-74
2022/01/07 19:56:14;;;;;;;117.53;40.90;;;;;;;;;;8400553;28;20056;-76
2022/01/07 20:00:38;;;;;;;100.47;38.63;;;;;;;;;;8421601;28;20048;-77
2022/01/07 20:04:50;;;;;;;128.75;39.28;;;;;;;;;;8405370;28;20084;-76
2022/01/07 20:09:12;;;;;;;298.92;93.50;;;;;;;;;;8423703;28;20055;-75
2022/01/07 20:13:32;;;;;;;80.18;29.35;;;;;;;;;;8425311;28;20468;-76
2022/01/07 20:22:39;;;;;;;38.03;14.50;;;;;;;;;;8415828;28;20063;-74
2022/01/07 20:27:10;;;;;;;36.50;13.38;;;;;;;;;;8433714;28;20467;-78
2022/01/07 20:31:39;;;;;;;41.58;17.33;;;;;;;;;;8413955;28;20044;-76
2022/01/07 20:35:53;;;;;;;45.97;14.30;;;;;;;;;;8414514;28;20044;-78
2022/01/07 20:40:19;;;;;;;46.47;15.27;;;;;;;;;;8426577;28;20092;-75
2022/01/07 20:44:37;;;;;;;47.30;19.10;;;;;;;;;;8418844;28;21912;-76
2022/01/07 20:48:47;;;;;;;33.90;13.82;;;;;;;;;;8416897;28;20098;-75
2022/01/07 20:53:04;;;;;;;34.20;16.20;;;;;;;;;;8419274;28;20048;-75
2022/01/07 20:57:12;;;;;;;46.75;17.02;;;;;;;;;;8416936;28;20124;-76
2022/01/07 21:01:22;;;;;;;61.45;21.55;;;;;;;;;;8412548;28;20036;-76
2022/01/07 21:05:48;;;;;;;42.22;16.30;;;;;;;;;;8425424;28;20040;-75
2022/01/07 21:10:08;;;;;;;39.92;16.88;;;;;;;;;;8413101;28;20122;-75
2022/01/07 21:14:32;;;;;;;40.88;16.60;;;;;;;;;;8430068;28;20131;-75
2022/01/07 21:18:44;;;;;;;41.45;15.90;;;;;;;;;;8432667;28;20095;-75
2022/01/07 21:22:52;;;;;;;38.88;13.13;;;;;;;;;;8436465;28;20058;-75
2022/01/07 21:26:56;;;;;;;31.00;12.52;;;;;;;;;;8447320;28;20051;-79
2022/01/07 21:31:03;;;;;;;43.85;15.98;;;;;;;;;;8446872;28;20074;-75
2022/01/07 21:35:10;;;;;;;41.83;14.75;;;;;;;;;;8440305;28;20044;-76
2022/01/07 21:39:14;;;;;;;40.47;14.18;;;;;;;;;;8435605;28;20040;-74
2022/01/07 21:43:17;;;;;;;48.40;20.10;;;;;;;;;;8435698;28;20044;-82
2022/01/07 21:47:22;;;;;;;104.18;30.60;;;;;;;;;;8444835;28;20104;-82
2022/01/07 21:51:27;;;;;;;96.25;25.55;;;;;;;;;;8451427;28;20108;-75
2022/01/07 21:55:33;;;;;;;77.82;22.63;;;;;;;;;;8466098;28;20060;-73
2022/01/07 21:59:36;;;;;;;86.50;25.65;;;;;;;;;;8446532;28;20064;-74
2022/01/07 22:03:46;;;;;;;97.72;29.88;;;;;;;;;;8446680;28;20116;-76
2022/01/07 22:07:50;;;;;;;61.15;20.92;;;;;;;;;;8448265;28;20048;-76
2022/01/07 22:11:56;;;;;;;64.28;20.63;;;;;;;;;;8447665;28;20466;-75
2022/01/07 22:16:00;;;;;;;100.85;33.97;;;;;;;;;;8448199;28;20104;-74
2022/01/07 22:20:08;;;;;;;38.10;14.05;;;;;;;;;;8463369;28;20051;-77
2022/01/07 22:24:11;;;;;;;45.65;17.38;;;;;;;;;;8465390;28;20101;-76
2022/01/07 22:28:15;;;;;;;48.38;15.85;;;;;;;;;;8465129;28;20092;-76
2022/01/07 22:32:21;;;;;;;41.88;15.73;;;;;;;;;;8464957;28;20043;-75
2022/01/07 22:36:26;;;;;;;49.35;17.65;;;;;;;;;;8465045;28;20049;-75
2022/01/07 22:40:30;;;;;;;40.47;12.77;;;;;;;;;;8464795;27;20047;-74
2022/01/07 22:44:35;;;;;;;56.50;17.23;;;;;;;;;;8464735;28;20495;-73
2022/01/07 22:48:37;;;;;;;33.30;12.95;;;;;;;;;;8464592;27;20074;-75
2022/01/07 22:52:42;;;;;;;44.90;15.30;;;;;;;;;;8465007;28;20484;-74
2022/01/07 22:56:45;;;;;;;37.67;14.82;;;;;;;;;;8464152;28;20052;-74
2022/01/07 23:00:52;;;;;;;34.30;14.73;;;;;;;;;;8464323;28;20048;-74
2022/01/07 23:04:54;;;;;;;56.42;20.00;;;;;;;;;;8464789;28;20467;-74
2022/01/07 23:08:59;;;;;;;47.63;15.15;;;;;;;;;;8464521;28;20056;-74
2022/01/07 23:13:14;;;;;;;42.85;14.02;;;;;;;;;;8464662;28;20040;-75
2022/01/07 23:17:19;;;;;;;43.30;17.50;;;;;;;;;;8464030;28;20047;-75
2022/01/07 23:21:23;;;;;;;37.10;13.98;;;;;;;;;;8462658;28;20044;-75
2022/01/07 23:25:28;;;;;;;41.70;14.70;;;;;;;;;;8464444;28;20074;-75
2022/01/07 23:29:30;;;;;;;38.35;14.13;;;;;;;;;;8464092;28;20108;-76
2022/01/07 23:33:33;;;;;;;39.05;14.73;;;;;;;;;;8463696;28;20051;-74
2022/01/07 23:37:36;;;;;;;40.42;15.35;;;;;;;;;;8463643;28;20047;-74
2022/01/07 23:41:41;;;;;;;36.75;13.88;;;;;;;;;;8464524;28;20048;-75
2022/01/07 23:45:44;;;;;;;43.35;14.88;;;;;;;;;;8463535;28;20058;-74
2022/01/07 23:49:46;;;;;;;41.70;15.15;;;;;;;;;;8463447;28;20052;-75
2022/01/07 23:53:49;;;;;;;42.40;17.38;;;;;;;;;;8464512;28;20528;-73
2022/01/07 23:57:56;;;;;;;39.28;15.52;;;;;;;;;;8463643;28;20063;-74
